AJR weather

Arvidsjaur Airport
Arvidsjaur, Norrbottena län, Sweden

Public forecast

Using degrees Celsius for public forecast. Weather courtesy of forecast.io.

METAR (pilot weather report)

Retrieved 2019/05/19 16:20 UTC (36 minutes ago):

ESNX 191620Z 10010KT CAVOK 22/03 Q1014

TAF (pilot weather forecast)

Forecast is more than 12 hours old.

Closest forecast is Vidsel Air Base, 27.4 nm (50.8 km) NE. Retrieved 2015/06/10 06:57 UTC (4 years ago):

TAF TAF HKEL 100500Z 1006/1106 30005KT 9999AR ESPE 100550Z 26008KT 210V320 CAVOK 10/02 Q1008